Time;durP1;ratioP1;P1;durP2;ratioP2;P2;SDS_P1;SDS_P2;PMS_P1;PMS_P2;Temp;Humidity;BMP_temperature;BMP_pressure;BME280_temperature;BME280_humidity;BME280_pressure;Samples;Min_cycle;Max_cycle;Signal;HPM_P1;HPM_P2
2019/08/31 00:00:08;;;;;;;17.85;15.45;;;;;;;17.29;100;95562.5;;;;
2019/08/31 00:01:10;;;;;;;17.85;15.45;;;;;;;17.29;100;95562.5;;;;
2019/08/31 00:02:12;;;;;;;17.65;15.95;;;;;;;17.26;100;95562.64;;;;
2019/08/31 00:03:13;;;;;;;17.65;15.95;;;;;;;17.26;100;95562.64;;;;
2019/08/31 00:04:17;;;;;;;17.65;15.95;;;;;;;17.26;100;95562.64;;;;
2019/08/31 00:05:19;;;;;;;18;16.2;;;;;;;17.23;100;95563.61;;;;
2019/08/31 00:06:22;;;;;;;18;16.2;;;;;;;17.23;100;95563.61;;;;
2019/08/31 00:07:23;;;;;;;17.15;15.45;;;;;;;17.19;100;95559.36;;;;
2019/08/31 00:08:24;;;;;;;17.15;15.45;;;;;;;17.19;100;95559.36;;;;
2019/08/31 00:09:26;;;;;;;17.15;15.45;;;;;;;17.19;100;95559.36;;;;
2019/08/31 00:10:27;;;;;;;17.75;15.85;;;;;;;17.16;100;95559.75;;;;
2019/08/31 00:11:29;;;;;;;17.75;15.85;;;;;;;17.16;100;95559.75;;;;
2019/08/31 00:12:30;;;;;;;18.45;16.1;;;;;;;17.13;100;95561.66;;;;
2019/08/31 00:13:32;;;;;;;18.45;16.1;;;;;;;17.13;100;95561.66;;;;
2019/08/31 00:14:33;;;;;;;18.45;16.1;;;;;;;17.13;100;95561.66;;;;
2019/08/31 00:15:34;;;;;;;16.95;15.3;;;;;;;17.1;100;95557.7;;;;
2019/08/31 00:16:36;;;;;;;16.95;15.3;;;;;;;17.1;100;95557.7;;;;
2019/08/31 00:17:37;;;;;;;16.95;15.3;;;;;;;17.1;100;95557.7;;;;
2019/08/31 00:18:38;;;;;;;17.2;15.4;;;;;;;17.08;100;95560.42;;;;
2019/08/31 00:19:40;;;;;;;17.2;15.4;;;;;;;17.08;100;95560.42;;;;
2019/08/31 00:20:41;;;;;;;16.85;15.2;;;;;;;17.05;100;95560.43;;;;
2019/08/31 00:21:43;;;;;;;16.85;15.2;;;;;;;17.05;100;95560.43;;;;
2019/08/31 00:22:44;;;;;;;16.85;15.2;;;;;;;17.05;100;95560.43;;;;
2019/08/31 00:23:45;;;;;;;16.75;14.95;;;;;;;17.03;100;95553.59;;;;
2019/08/31 00:24:46;;;;;;;16.75;14.95;;;;;;;17.03;100;95553.59;;;;
2019/08/31 00:25:47;;;;;;;17.7;16;;;;;;;17;100;95549.06;;;;
2019/08/31 00:26:51;;;;;;;17.7;16;;;;;;;17;100;95549.06;;;;
2019/08/31 00:27:52;;;;;;;17.7;16;;;;;;;17;100;95549.06;;;;
2019/08/31 00:28:53;;;;;;;19.1;17.1;;;;;;;16.97;100;95535.57;;;;
2019/08/31 00:29:54;;;;;;;19.1;17.1;;;;;;;16.97;100;95535.57;;;;
2019/08/31 00:30:55;;;;;;;17.85;16;;;;;;;16.94;100;95537.35;;;;
2019/08/31 00:31:59;;;;;;;17.85;16;;;;;;;16.94;100;95537.35;;;;
2019/08/31 00:33:00;;;;;;;17.85;16;;;;;;;16.94;100;95537.35;;;;
2019/08/31 00:34:01;;;;;;;17.4;15.65;;;;;;;16.91;100;95540.18;;;;
2019/08/31 00:35:03;;;;;;;17.4;15.65;;;;;;;16.91;100;95540.18;;;;
2019/08/31 00:36:04;;;;;;;17.4;15.65;;;;;;;16.91;100;95540.18;;;;
2019/08/31 00:37:05;;;;;;;17;15.2;;;;;;;16.88;100;95539.37;;;;
2019/08/31 00:38:07;;;;;;;17;15.2;;;;;;;16.88;100;95539.37;;;;
2019/08/31 00:39:08;;;;;;;16.9;15.3;;;;;;;16.85;100;95538.96;;;;
2019/08/31 00:40:09;;;;;;;16.9;15.3;;;;;;;16.85;100;95538.96;;;;
2019/08/31 00:41:11;;;;;;;16.9;15.3;;;;;;;16.85;100;95538.96;;;;
2019/08/31 00:42:13;;;;;;;16.75;15.15;;;;;;;16.83;100;95533.08;;;;
2019/08/31 00:43:14;;;;;;;16.75;15.15;;;;;;;16.83;100;95533.08;;;;
2019/08/31 00:44:15;;;;;;;16.5;14.75;;;;;;;16.8;100;95529.53;;;;
2019/08/31 00:45:16;;;;;;;16.5;14.75;;;;;;;16.8;100;95529.53;;;;
2019/08/31 00:46:19;;;;;;;16.5;14.75;;;;;;;16.8;100;95529.53;;;;
2019/08/31 00:47:20;;;;;;;16.95;15.25;;;;;;;16.78;100;95529.39;;;;
2019/08/31 00:48:21;;;;;;;16.95;15.25;;;;;;;16.78;100;95529.39;;;;
2019/08/31 00:49:23;;;;;;;16.95;15.25;;;;;;;16.78;100;95529.39;;;;
2019/08/31 00:50:24;;;;;;;16.95;14.35;;;;;;;16.75;100;95527.59;;;;
2019/08/31 00:51:27;;;;;;;16.95;14.35;;;;;;;16.75;100;95527.59;;;;
2019/08/31 00:52:28;;;;;;;15.6;13.9;;;;;;;16.74;100;95535.52;;;;
2019/08/31 00:53:29;;;;;;;15.6;13.9;;;;;;;16.74;100;95535.52;;;;
2019/08/31 00:54:30;;;;;;;15.6;13.9;;;;;;;16.74;100;95535.52;;;;
2019/08/31 00:55:31;;;;;;;15.25;13.2;;;;;;;16.73;100;95530.33;;;;
2019/08/31 00:56:34;;;;;;;15.25;13.2;;;;;;;16.73;100;95530.33;;;;
2019/08/31 00:57:35;;;;;;;15.05;13.45;;;;;;;16.71;100;95521.86;;;;
2019/08/31 00:58:37;;;;;;;15.05;13.45;;;;;;;16.71;100;95521.86;;;;
2019/08/31 00:59:38;;;;;;;15.05;13.45;;;;;;;16.71;100;95521.86;;;;
2019/08/31 01:00:39;;;;;;;14.85;13.35;;;;;;;16.7;100;95519.41;;;;
2019/08/31 01:01:43;;;;;;;14.85;13.35;;;;;;;16.7;100;95519.41;;;;
2019/08/31 01:02:44;;;;;;;14.85;13.35;;;;;;;16.7;100;95519.41;;;;
2019/08/31 01:03:46;;;;;;;14.85;13.25;;;;;;;16.68;100;95516.96;;;;
2019/08/31 01:04:47;;;;;;;14.85;13.25;;;;;;;16.68;100;95516.96;;;;
2019/08/31 01:05:48;;;;;;;15.7;14.1;;;;;;;16.65;100;95513.4;;;;
2019/08/31 01:06:51;;;;;;;15.7;14.1;;;;;;;16.65;100;95513.4;;;;
2019/08/31 01:07:52;;;;;;;15.7;14.1;;;;;;;16.65;100;95513.4;;;;
2019/08/31 01:08:54;;;;;;;15.9;14.3;;;;;;;16.63;100;95509.3;;;;
2019/08/31 01:09:55;;;;;;;15.9;14.3;;;;;;;16.63;100;95509.3;;;;
2019/08/31 01:10:57;;;;;;;16.2;14.5;;;;;;;16.6;100;95511.21;;;;
2019/08/31 01:11:58;;;;;;;16.2;14.5;;;;;;;16.6;100;95511.21;;;;
2019/08/31 01:13:00;;;;;;;16.2;14.5;;;;;;;16.6;100;95511.21;;;;
2019/08/31 01:14:02;;;;;;;15;13.5;;;;;;;16.56;100;95504.11;;;;
2019/08/31 01:15:04;;;;;;;15;13.5;;;;;;;16.56;100;95504.11;;;;
2019/08/31 01:16:06;;;;;;;15.75;14.15;;;;;;;16.54;100;95504.5;;;;
2019/08/31 01:17:07;;;;;;;15.75;14.15;;;;;;;16.54;100;95504.5;;;;
2019/08/31 01:18:09;;;;;;;15.75;14.15;;;;;;;16.54;100;95504.5;;;;
2019/08/31 01:19:11;;;;;;;16.1;14.5;;;;;;;16.52;100;95507.2;;;;
2019/08/31 01:20:12;;;;;;;16.1;14.5;;;;;;;16.52;100;95507.2;;;;
2019/08/31 01:21:14;;;;;;;16.1;14.5;;;;;;;16.52;100;95507.2;;;;
2019/08/31 01:22:16;;;;;;;16.3;14.75;;;;;;;16.49;100;95510.89;;;;
2019/08/31 01:23:18;;;;;;;16.3;14.75;;;;;;;16.49;100;95510.89;;;;
2019/08/31 01:24:19;;;;;;;17.4;15.5;;;;;;;16.47;100;95496.7;;;;
2019/08/31 01:25:21;;;;;;;17.4;15.5;;;;;;;16.47;100;95496.7;;;;
2019/08/31 01:26:23;;;;;;;17.4;15.5;;;;;;;16.47;100;95496.7;;;;
2019/08/31 01:27:24;;;;;;;17.7;15.8;;;;;;;16.44;100;95494.48;;;;
2019/08/31 01:28:25;;;;;;;17.7;15.8;;;;;;;16.44;100;95494.48;;;;
2019/08/31 01:29:26;;;;;;;16.8;15.2;;;;;;;16.42;100;95490.8;;;;
2019/08/31 01:30:28;;;;;;;16.8;15.2;;;;;;;16.42;100;95490.8;;;;
2019/08/31 01:31:30;;;;;;;16.8;15.2;;;;;;;16.42;100;95490.8;;;;
2019/08/31 01:32:31;;;;;;;18.15;15.75;;;;;;;16.39;100;95489.4;;;;
2019/08/31 01:33:33;;;;;;;18.15;15.75;;;;;;;16.39;100;95489.4;;;;
2019/08/31 01:34:34;;;;;;;18.15;15.75;;;;;;;16.39;100;95489.4;;;;
2019/08/31 01:35:35;;;;;;;16.3;14.6;;;;;;;16.37;100;95489.26;;;;
2019/08/31 01:36:37;;;;;;;16.3;14.6;;;;;;;16.37;100;95489.26;;;;
2019/08/31 01:37:38;;;;;;;16.2;14.5;;;;;;;16.35;100;95483.4;;;;
2019/08/31 01:38:40;;;;;;;16.2;14.5;;;;;;;16.35;100;95483.4;;;;
2019/08/31 01:39:41;;;;;;;16.2;14.5;;;;;;;16.35;100;95483.4;;;;
2019/08/31 01:40:42;;;;;;;16.95;15.25;;;;;;;16.32;100;95478.35;;;;
2019/08/31 01:41:44;;;;;;;16.95;15.25;;;;;;;16.32;100;95478.35;;;;
2019/08/31 01:42:45;;;;;;;17.45;15.7;;;;;;;16.3;100;95483.25;;;;
2019/08/31 01:43:46;;;;;;;17.45;15.7;;;;;;;16.3;100;95483.25;;;;
2019/08/31 01:44:48;;;;;;;17.45;15.7;;;;;;;16.3;100;95483.25;;;;
2019/08/31 01:45:49;;;;;;;17.2;15.5;;;;;;;16.28;100;95484.2;;;;
2019/08/31 01:46:51;;;;;;;17.2;15.5;;;;;;;16.28;100;95484.2;;;;
2019/08/31 01:47:52;;;;;;;17.2;15.5;;;;;;;16.28;100;95484.2;;;;
2019/08/31 01:48:53;;;;;;;17.65;15.9;;;;;;;16.25;100;95477.37;;;;
2019/08/31 01:49:55;;;;;;;17.65;15.9;;;;;;;16.25;100;95477.37;;;;
2019/08/31 01:50:56;;;;;;;17.4;15.6;;;;;;;16.23;100;95478.58;;;;
2019/08/31 01:51:57;;;;;;;17.4;15.6;;;;;;;16.23;100;95478.58;;;;
2019/08/31 01:52:58;;;;;;;17.4;15.6;;;;;;;16.23;100;95478.58;;;;
2019/08/31 01:54:00;;;;;;;17.1;15.3;;;;;;;16.21;100;95471.22;;;;
2019/08/31 01:55:01;;;;;;;17.1;15.3;;;;;;;16.21;100;95471.22;;;;
2019/08/31 01:56:03;;;;;;;16.5;14.8;;;;;;;16.19;100;95472.44;;;;
2019/08/31 01:57:04;;;;;;;16.5;14.8;;;;;;;16.19;100;95472.44;;;;
2019/08/31 01:58:05;;;;;;;16.5;14.8;;;;;;;16.19;100;95472.44;;;;
2019/08/31 01:59:07;;;;;;;16.35;14.75;;;;;;;16.17;100;95467.79;;;;
2019/08/31 02:00:08;;;;;;;16.35;14.75;;;;;;;16.17;100;95467.79;;;;
2019/08/31 02:01:11;;;;;;;16.35;14.75;;;;;;;16.17;100;95467.79;;;;
2019/08/31 02:02:13;;;;;;;16.35;14.75;;;;;;;16.17;100;95467.79;;;;
2019/08/31 02:03:14;;;;;;;16.35;14.75;;;;;;;16.17;100;95467.79;;;;
2019/08/31 02:04:15;;;;;;;16.35;14.75;;;;;;;16.17;100;95467.79;;;;
2019/08/31 02:05:16;;;;;;;16.35;14.75;;;;;;;16.17;100;95467.79;;;;
2019/08/31 02:06:18;;;;;;;16.35;14.75;;;;;;;16.17;100;95467.79;;;;
2019/08/31 02:07:19;;;;;;;16.35;14.75;;;;;;;16.17;100;95467.79;;;;
2019/08/31 02:08:21;;;;;;;16.35;14.75;;;;;;;16.17;100;95467.79;;;;
2019/08/31 02:09:22;;;;;;;16.3;14.55;;;;;;;15.78;100;95459.85;;;;
2019/08/31 02:10:23;;;;;;;16.3;14.55;;;;;;;15.78;100;95459.85;;;;
2019/08/31 02:11:26;;;;;;;16.3;14.55;;;;;;;15.78;100;95459.85;;;;
2019/08/31 02:12:27;;;;;;;16.15;14.45;;;;;;;15.75;100;95456.27;;;;
2019/08/31 02:13:28;;;;;;;16.15;14.45;;;;;;;15.75;100;95456.27;;;;
2019/08/31 02:14:29;;;;;;;16.15;14.45;;;;;;;15.75;100;95456.27;;;;
2019/08/31 02:15:38;;;;;;;16;14.35;;;;;;;15.78;100;95459.85;;;;
2019/08/31 02:16:41;;;;;;;16;14.35;;;;;;;15.78;100;95459.85;;;;
2019/08/31 02:17:42;;;;;;;15.35;13.85;;;;;;;15.8;100;95454.94;;;;
2019/08/31 02:18:44;;;;;;;15.35;13.85;;;;;;;15.8;100;95454.94;;;;
2019/08/31 02:19:45;;;;;;;15.35;13.85;;;;;;;15.8;100;95454.94;;;;
2019/08/31 02:20:46;;;;;;;14.65;13.2;;;;;;;15.81;100;95449.64;;;;
2019/08/31 02:21:47;;;;;;;14.65;13.2;;;;;;;15.81;100;95449.64;;;;
2019/08/31 02:22:49;;;;;;;15.45;14;;;;;;;15.82;100;95458.09;;;;
2019/08/31 02:23:50;;;;;;;15.45;14;;;;;;;15.82;100;95458.09;;;;
2019/08/31 02:24:51;;;;;;;15.45;14;;;;;;;15.82;100;95458.09;;;;
2019/08/31 02:25:53;;;;;;;14.85;13.25;;;;;;;15.84;100;95461.91;;;;
2019/08/31 02:26:54;;;;;;;14.85;13.25;;;;;;;15.84;100;95461.91;;;;
2019/08/31 02:27:55;;;;;;;14.85;13.25;;;;;;;15.84;100;95461.91;;;;
2019/08/31 02:28:57;;;;;;;14.85;13.25;;;;;;;15.84;100;95461.91;;;;
2019/08/31 02:29:58;;;;;;;14.85;13.25;;;;;;;15.84;100;95461.91;;;;
2019/08/31 02:30:59;;;;;;;14.85;13.25;;;;;;;15.84;100;95461.91;;;;
2019/08/31 02:32:00;;;;;;;14.85;13.25;;;;;;;15.84;100;95461.91;;;;
2019/08/31 02:33:01;;;;;;;14.85;13.25;;;;;;;15.84;100;95461.91;;;;
2019/08/31 02:34:03;;;;;;;14.85;13.25;;;;;;;15.84;100;95461.91;;;;
2019/08/31 02:35:04;;;;;;;14.85;13.25;;;;;;;15.84;100;95461.91;;;;
2019/08/31 02:36:06;;;;;;;16.55;14.9;;;;;;;15.56;100;95447.33;;;;
2019/08/31 02:37:07;;;;;;;16.55;14.9;;;;;;;15.56;100;95447.33;;;;
2019/08/31 02:38:09;;;;;;;16.55;14.9;;;;;;;15.56;100;95447.33;;;;
2019/08/31 02:39:10;;;;;;;16.55;14.9;;;;;;;15.56;100;95447.33;;;;
2019/08/31 02:40:11;;;;;;;16.55;14.9;;;;;;;15.56;100;95447.33;;;;
2019/08/31 02:41:14;;;;;;;16.55;14.9;;;;;;;15.56;100;95447.33;;;;
2019/08/31 02:42:15;;;;;;;16.55;14.9;;;;;;;15.56;100;95447.33;;;;
2019/08/31 02:43:16;;;;;;;16.55;14.9;;;;;;;15.56;100;95447.33;;;;
2019/08/31 02:44:18;;;;;;;16.55;14.9;;;;;;;15.56;100;95447.33;;;;
2019/08/31 02:45:19;;;;;;;16.55;14.9;;;;;;;15.56;100;95447.33;;;;
2019/08/31 02:46:20;;;;;;;16.55;14.9;;;;;;;15.56;100;95447.33;;;;
2019/08/31 02:47:22;;;;;;;17.2;14.95;;;;;;;15.3;100;95429.97;;;;
2019/08/31 02:48:23;;;;;;;17.2;14.95;;;;;;;15.3;100;95429.97;;;;
2019/08/31 02:49:24;;;;;;;16.85;15.15;;;;;;;15.3;100;95423.17;;;;
2019/08/31 02:50:25;;;;;;;16.85;15.15;;;;;;;15.3;100;95423.17;;;;
2019/08/31 02:51:27;;;;;;;16.85;15.15;;;;;;;15.3;100;95423.17;;;;
2019/08/31 02:52:28;;;;;;;16.85;15.15;;;;;;;15.3;100;95423.17;;;;
2019/08/31 02:53:29;;;;;;;16.85;15.15;;;;;;;15.3;100;95423.17;;;;
2019/08/31 02:54:30;;;;;;;16.85;15.15;;;;;;;15.3;100;95423.17;;;;
2019/08/31 02:55:32;;;;;;;16.85;15.15;;;;;;;15.3;100;95423.17;;;;
2019/08/31 02:56:33;;;;;;;16.85;15.15;;;;;;;15.3;100;95423.17;;;;
2019/08/31 02:57:34;;;;;;;16.85;15.15;;;;;;;15.3;100;95423.17;;;;
2019/08/31 02:58:36;;;;;;;16.85;15.15;;;;;;;15.3;100;95423.17;;;;
2019/08/31 02:59:37;;;;;;;16.85;15.15;;;;;;;15.3;100;95423.17;;;;
2019/08/31 03:00:38;;;;;;;17.6;15.7;;;;;;;15.14;100;95424.14;;;;
2019/08/31 03:01:40;;;;;;;17.6;15.7;;;;;;;15.14;100;95424.14;;;;
2019/08/31 03:02:41;;;;;;;17.8;15.9;;;;;;;15.16;100;95424.3;;;;
2019/08/31 03:03:43;;;;;;;17.8;15.9;;;;;;;15.16;100;95424.3;;;;
2019/08/31 03:04:44;;;;;;;17.8;15.9;;;;;;;15.16;100;95424.3;;;;
2019/08/31 03:05:45;;;;;;;16.75;15.05;;;;;;;15.23;100;95419.03;;;;
2019/08/31 03:06:46;;;;;;;16.75;15.05;;;;;;;15.23;100;95419.03;;;;
2019/08/31 03:07:47;;;;;;;17.5;15.75;;;;;;;15.28;100;95419.06;;;;
2019/08/31 03:08:49;;;;;;;17.5;15.75;;;;;;;15.28;100;95419.06;;;;
2019/08/31 03:09:50;;;;;;;17.5;15.75;;;;;;;15.28;100;95419.06;;;;
2019/08/31 03:10:51;;;;;;;17.5;15.75;;;;;;;15.28;100;95419.06;;;;
2019/08/31 03:11:52;;;;;;;17.5;15.75;;;;;;;15.28;100;95419.06;;;;
2019/08/31 03:12:53;;;;;;;17.5;15.75;;;;;;;15.28;100;95419.06;;;;
2019/08/31 03:13:55;;;;;;;17.5;15.75;;;;;;;15.28;100;95419.06;;;;
2019/08/31 03:14:56;;;;;;;17.5;15.75;;;;;;;15.28;100;95419.06;;;;
2019/08/31 03:15:57;;;;;;;17.5;15.75;;;;;;;15.28;100;95419.06;;;;
2019/08/31 03:16:58;;;;;;;17.5;15.75;;;;;;;15.28;100;95419.06;;;;
2019/08/31 03:17:59;;;;;;;17.5;15.75;;;;;;;15.28;100;95419.06;;;;
2019/08/31 03:19:00;;;;;;;15.8;14.05;;;;;;;15.05;100;95413.47;;;;
2019/08/31 03:20:01;;;;;;;15.8;14.05;;;;;;;15.05;100;95413.47;;;;
2019/08/31 03:21:03;;;;;;;17.15;15.45;;;;;;;15.06;100;95406.52;;;;
2019/08/31 03:22:05;;;;;;;17.15;15.45;;;;;;;15.06;100;95406.52;;;;
2019/08/31 03:23:06;;;;;;;17.15;15.45;;;;;;;15.06;100;95406.52;;;;
2019/08/31 03:24:07;;;;;;;17.15;15.45;;;;;;;15.06;100;95406.52;;;;
2019/08/31 03:25:08;;;;;;;17.15;15.45;;;;;;;15.06;100;95406.52;;;;
2019/08/31 03:26:10;;;;;;;17.15;15.45;;;;;;;15.06;100;95406.52;;;;
2019/08/31 03:27:12;;;;;;;17.15;15.45;;;;;;;15.06;100;95406.52;;;;
2019/08/31 03:28:13;;;;;;;17.15;15.45;;;;;;;15.06;100;95406.52;;;;
2019/08/31 03:29:14;;;;;;;17.15;15.45;;;;;;;15.06;100;95406.52;;;;
2019/08/31 03:30:15;;;;;;;17.15;15.45;;;;;;;15.06;100;95406.52;;;;
2019/08/31 03:31:17;;;;;;;17.15;15.45;;;;;;;15.06;100;95406.52;;;;
2019/08/31 03:32:18;;;;;;;16.85;15.05;;;;;;;14.89;100;95402.61;;;;
2019/08/31 03:33:20;;;;;;;16.85;15.05;;;;;;;14.89;100;95402.61;;;;
2019/08/31 03:34:21;;;;;;;16.55;14.8;;;;;;;14.91;100;95413.22;;;;
2019/08/31 03:35:22;;;;;;;16.55;14.8;;;;;;;14.91;100;95413.22;;;;
2019/08/31 03:36:24;;;;;;;16.55;14.8;;;;;;;14.91;100;95413.22;;;;
2019/08/31 03:37:25;;;;;;;16.55;14.8;;;;;;;14.91;100;95413.22;;;;
2019/08/31 03:38:26;;;;;;;16.55;14.8;;;;;;;14.91;100;95413.22;;;;
2019/08/31 03:39:27;;;;;;;16.55;14.8;;;;;;;14.91;100;95413.22;;;;
2019/08/31 03:40:29;;;;;;;16.55;14.8;;;;;;;14.91;100;95413.22;;;;
2019/08/31 03:41:31;;;;;;;16.55;14.8;;;;;;;14.91;100;95413.22;;;;
2019/08/31 03:42:32;;;;;;;16.55;14.8;;;;;;;14.91;100;95413.22;;;;
2019/08/31 03:43:33;;;;;;;16.55;14.8;;;;;;;14.91;100;95413.22;;;;
2019/08/31 03:44:34;;;;;;;16.55;14.8;;;;;;;14.91;100;95413.22;;;;
2019/08/31 03:45:35;;;;;;;16.1;14.45;;;;;;;14.78;100;95406.84;;;;
2019/08/31 03:46:39;;;;;;;16.1;14.45;;;;;;;14.78;100;95406.84;;;;
2019/08/31 03:47:40;;;;;;;16.1;14.45;;;;;;;14.78;100;95406.84;;;;
2019/08/31 03:48:41;;;;;;;16.1;14.45;;;;;;;14.78;100;95406.84;;;;
2019/08/31 03:49:42;;;;;;;16.1;14.45;;;;;;;14.78;100;95406.84;;;;
2019/08/31 03:50:43;;;;;;;16.1;14.45;;;;;;;14.78;100;95406.84;;;;
2019/08/31 03:51:46;;;;;;;16.1;14.45;;;;;;;14.78;100;95406.84;;;;
2019/08/31 03:52:47;;;;;;;16.1;14.45;;;;;;;14.78;100;95406.84;;;;
2019/08/31 03:53:48;;;;;;;16.1;14.45;;;;;;;14.78;100;95406.84;;;;
2019/08/31 03:54:49;;;;;;;16.1;14.45;;;;;;;14.78;100;95406.84;;;;
2019/08/31 03:55:51;;;;;;;16;14.3;;;;;;;14.69;100;95404.74;;;;
2019/08/31 03:56:52;;;;;;;16;14.3;;;;;;;14.69;100;95404.74;;;;
2019/08/31 03:57:53;;;;;;;16;14.3;;;;;;;14.69;100;95404.74;;;;
2019/08/31 03:58:54;;;;;;;16;14.3;;;;;;;14.69;100;95404.74;;;;
2019/08/31 03:59:55;;;;;;;16;14.3;;;;;;;14.69;100;95404.74;;;;
2019/08/31 04:00:56;;;;;;;16;14.3;;;;;;;14.69;100;95404.74;;;;
2019/08/31 04:01:58;;;;;;;16;14.3;;;;;;;14.69;100;95404.74;;;;
2019/08/31 04:02:59;;;;;;;16;14.3;;;;;;;14.69;100;95404.74;;;;
2019/08/31 04:04:00;;;;;;;16;14.3;;;;;;;14.69;100;95404.74;;;;
2019/08/31 04:05:02;;;;;;;16;14.3;;;;;;;14.69;100;95404.74;;;;
2019/08/31 04:06:03;;;;;;;16.45;14.8;;;;;;;14.57;100;95398.66;;;;
2019/08/31 04:07:04;;;;;;;16.45;14.8;;;;;;;14.57;100;95398.66;;;;
2019/08/31 04:08:05;;;;;;;16.45;14.8;;;;;;;14.57;100;95398.66;;;;
2019/08/31 04:09:06;;;;;;;17.05;15.4;;;;;;;14.61;100;95400.17;;;;
2019/08/31 04:10:08;;;;;;;17.05;15.4;;;;;;;14.61;100;95400.17;;;;
2019/08/31 04:11:10;;;;;;;17.05;15.4;;;;;;;14.61;100;95400.17;;;;
2019/08/31 04:12:11;;;;;;;17.05;15.4;;;;;;;14.61;100;95400.17;;;;
2019/08/31 04:13:12;;;;;;;17.05;15.4;;;;;;;14.61;100;95400.17;;;;
2019/08/31 04:14:13;;;;;;;17.05;15.4;;;;;;;14.61;100;95400.17;;;;
2019/08/31 04:15:15;;;;;;;17.05;15.4;;;;;;;14.61;100;95400.17;;;;
2019/08/31 04:16:17;;;;;;;17.05;15.4;;;;;;;14.61;100;95400.17;;;;
2019/08/31 04:17:18;;;;;;;17.05;15.4;;;;;;;14.61;100;95400.17;;;;
2019/08/31 04:18:19;;;;;;;17.05;15.4;;;;;;;14.61;100;95400.17;;;;
2019/08/31 04:19:20;;;;;;;18;14.5;;;;;;;14.54;100;95394.54;;;;
2019/08/31 04:20:21;;;;;;;18;14.5;;;;;;;14.54;100;95394.54;;;;
2019/08/31 04:21:25;;;;;;;18;14.5;;;;;;;14.54;100;95394.54;;;;
2019/08/31 04:22:26;;;;;;;16.6;14.9;;;;;;;14.58;100;95388.47;;;;
2019/08/31 04:23:27;;;;;;;16.6;14.9;;;;;;;14.58;100;95388.47;;;;
2019/08/31 04:24:29;;;;;;;16.6;14.9;;;;;;;14.58;100;95388.47;;;;
2019/08/31 04:25:30;;;;;;;16.6;14.9;;;;;;;14.58;100;95388.47;;;;
2019/08/31 04:26:32;;;;;;;16.6;14.9;;;;;;;14.58;100;95388.47;;;;
2019/08/31 04:27:33;;;;;;;16.6;14.9;;;;;;;14.58;100;95388.47;;;;
2019/08/31 04:28:34;;;;;;;16.6;14.9;;;;;;;14.58;100;95388.47;;;;
2019/08/31 04:29:35;;;;;;;16.6;14.9;;;;;;;14.58;100;95388.47;;;;
2019/08/31 04:30:36;;;;;;;16.6;14.9;;;;;;;14.58;100;95388.47;;;;
2019/08/31 04:31:38;;;;;;;16.6;14.9;;;;;;;14.58;100;95388.47;;;;
2019/08/31 04:32:39;;;;;;;15.35;13.7;;;;;;;14.49;100;95401.7;;;;
2019/08/31 04:33:40;;;;;;;15.35;13.7;;;;;;;14.49;100;95401.7;;;;
2019/08/31 04:34:42;;;;;;;15.35;13.7;;;;;;;14.49;100;95401.7;;;;
2019/08/31 04:35:43;;;;;;;15.35;13.7;;;;;;;14.49;100;95401.7;;;;
2019/08/31 04:36:46;;;;;;;15.35;13.7;;;;;;;14.49;100;95401.7;;;;
2019/08/31 04:37:47;;;;;;;15.35;13.7;;;;;;;14.49;100;95401.7;;;;
2019/08/31 04:38:48;;;;;;;15.35;13.7;;;;;;;14.49;100;95401.7;;;;
2019/08/31 04:39:49;;;;;;;15.35;13.7;;;;;;;14.49;100;95401.7;;;;
2019/08/31 04:40:50;;;;;;;15.35;13.7;;;;;;;14.49;100;95401.7;;;;
2019/08/31 04:41:51;;;;;;;15.35;13.7;;;;;;;14.49;100;95401.7;;;;
2019/08/31 04:42:52;;;;;;;15.35;13.7;;;;;;;14.49;100;95401.7;;;;
2019/08/31 04:43:53;;;;;;;15.6;13.95;;;;;;;14.5;100;95402.12;;;;
2019/08/31 04:44:55;;;;;;;15.6;13.95;;;;;;;14.5;100;95402.12;;;;
2019/08/31 04:45:56;;;;;;;15.6;13.95;;;;;;;14.5;100;95402.12;;;;
2019/08/31 04:46:57;;;;;;;15.6;13.95;;;;;;;14.5;100;95402.12;;;;
2019/08/31 04:47:58;;;;;;;15.6;13.95;;;;;;;14.5;100;95402.12;;;;
2019/08/31 04:48:59;;;;;;;15.6;13.95;;;;;;;14.5;100;95402.12;;;;
2019/08/31 04:50:00;;;;;;;15.6;13.95;;;;;;;14.5;100;95402.12;;;;
2019/08/31 04:51:02;;;;;;;15.6;13.95;;;;;;;14.5;100;95402.12;;;;
2019/08/31 04:52:04;;;;;;;15.6;13.95;;;;;;;14.5;100;95402.12;;;;
2019/08/31 04:53:05;;;;;;;15.6;13.95;;;;;;;14.5;100;95402.12;;;;
2019/08/31 04:54:06;;;;;;;17.1;15.35;;;;;;;14.49;100;95399.1;;;;
2019/08/31 04:55:08;;;;;;;17.1;15.35;;;;;;;14.49;100;95399.1;;;;
2019/08/31 04:56:10;;;;;;;17.1;15.35;;;;;;;14.49;100;95399.1;;;;
2019/08/31 04:57:11;;;;;;;17.1;15.35;;;;;;;14.49;100;95399.1;;;;
2019/08/31 04:58:12;;;;;;;17.1;15.35;;;;;;;14.49;100;95399.1;;;;
2019/08/31 04:59:13;;;;;;;17.1;15.35;;;;;;;14.49;100;95399.1;;;;
2019/08/31 05:00:14;;;;;;;17.1;15.35;;;;;;;14.49;100;95399.1;;;;
2019/08/31 05:01:17;;;;;;;17.1;15.35;;;;;;;14.49;100;95399.1;;;;
2019/08/31 05:02:18;;;;;;;17.1;15.35;;;;;;;14.49;100;95399.1;;;;
2019/08/31 05:03:19;;;;;;;17.1;15.35;;;;;;;14.49;100;95399.1;;;;
2019/08/31 05:04:21;;;;;;;17.5;15.55;;;;;;;14.58;100;95392.02;;;;
2019/08/31 05:05:22;;;;;;;17.5;15.55;;;;;;;14.58;100;95392.02;;;;
2019/08/31 05:06:25;;;;;;;17.5;15.55;;;;;;;14.58;100;95392.02;;;;
2019/08/31 05:07:26;;;;;;;17.5;15.55;;;;;;;14.58;100;95392.02;;;;
2019/08/31 05:08:27;;;;;;;17.5;15.55;;;;;;;14.58;100;95392.02;;;;
2019/08/31 05:09:28;;;;;;;17.5;15.55;;;;;;;14.58;100;95392.02;;;;
2019/08/31 05:10:30;;;;;;;17.5;15.55;;;;;;;14.58;100;95392.02;;;;
2019/08/31 05:11:35;;;;;;;17.5;15.55;;;;;;;14.58;100;95392.02;;;;
2019/08/31 05:12:36;;;;;;;17.5;15.55;;;;;;;14.58;100;95392.02;;;;
2019/08/31 05:13:37;;;;;;;17.5;15.55;;;;;;;14.58;100;95392.02;;;;
2019/08/31 05:14:38;;;;;;;17.5;15.55;;;;;;;14.58;100;95392.02;;;;
2019/08/31 05:15:40;;;;;;;16.5;14.85;;;;;;;14.67;100;95395.06;;;;
2019/08/31 05:16:41;;;;;;;16.5;14.85;;;;;;;14.67;100;95395.06;;;;
2019/08/31 05:17:42;;;;;;;16.5;14.85;;;;;;;14.67;100;95395.06;;;;
2019/08/31 05:18:44;;;;;;;16.5;14.85;;;;;;;14.67;100;95395.06;;;;
2019/08/31 05:19:45;;;;;;;16.5;14.85;;;;;;;14.67;100;95395.06;;;;
2019/08/31 05:20:46;;;;;;;16.5;14.85;;;;;;;14.67;100;95395.06;;;;
2019/08/31 05:21:47;;;;;;;16.5;14.85;;;;;;;14.67;100;95395.06;;;;
2019/08/31 05:22:49;;;;;;;16.5;14.85;;;;;;;14.67;100;95395.06;;;;
2019/08/31 05:23:50;;;;;;;16.5;14.85;;;;;;;14.67;100;95395.06;;;;
2019/08/31 05:24:51;;;;;;;16.5;14.85;;;;;;;14.67;100;95395.06;;;;
2019/08/31 05:25:52;;;;;;;17.35;15.55;;;;;;;14.89;100;95396.34;;;;
2019/08/31 05:26:53;;;;;;;17.35;15.55;;;;;;;14.89;100;95396.34;;;;
2019/08/31 05:27:54;;;;;;;17.35;15.55;;;;;;;14.89;100;95396.34;;;;
2019/08/31 05:28:56;;;;;;;17.35;15.55;;;;;;;14.89;100;95396.34;;;;
2019/08/31 05:29:57;;;;;;;17.35;15.55;;;;;;;14.89;100;95396.34;;;;
2019/08/31 05:30:58;;;;;;;17.35;15.55;;;;;;;14.89;100;95396.34;;;;
2019/08/31 05:31:59;;;;;;;17.35;15.55;;;;;;;14.89;100;95396.34;;;;
2019/08/31 05:33:00;;;;;;;17.35;15.55;;;;;;;14.89;100;95396.34;;;;
2019/08/31 05:34:01;;;;;;;17.35;15.55;;;;;;;14.89;100;95396.34;;;;
2019/08/31 05:35:03;;;;;;;17.35;15.55;;;;;;;14.89;100;95396.34;;;;
2019/08/31 05:36:05;;;;;;;17.35;15.55;;;;;;;14.89;100;95396.34;;;;
2019/08/31 05:37:06;;;;;;;16.8;15;;;;;;;15.13;100;95392.04;;;;
2019/08/31 05:38:07;;;;;;;16.8;15;;;;;;;15.13;100;95392.04;;;;
2019/08/31 05:39:08;;;;;;;16.8;15;;;;;;;15.13;100;95392.04;;;;
2019/08/31 05:40:10;;;;;;;16.8;15;;;;;;;15.13;100;95392.04;;;;
2019/08/31 05:41:12;;;;;;;16.8;15;;;;;;;15.13;100;95392.04;;;;
2019/08/31 05:42:13;;;;;;;16.8;15;;;;;;;15.13;100;95392.04;;;;
2019/08/31 05:43:14;;;;;;;16.8;15;;;;;;;15.13;100;95392.04;;;;
2019/08/31 05:44:15;;;;;;;16.8;15;;;;;;;15.13;100;95392.04;;;;
2019/08/31 05:45:17;;;;;;;16.8;15;;;;;;;15.13;100;95392.04;;;;
2019/08/31 05:46:22;;;;;;;16.8;15;;;;;;;15.13;100;95392.04;;;;
2019/08/31 05:47:23;;;;;;;16.1;14.4;;;;;;;15.55;100;95394.79;;;;
2019/08/31 05:48:24;;;;;;;16.1;14.4;;;;;;;15.55;100;95394.79;;;;
2019/08/31 05:49:25;;;;;;;16.1;14.4;;;;;;;15.55;100;95394.79;;;;
2019/08/31 05:50:27;;;;;;;16.1;14.4;;;;;;;15.55;100;95394.79;;;;
2019/08/31 05:51:28;;;;;;;16.1;14.4;;;;;;;15.55;100;95394.79;;;;
2019/08/31 05:52:29;;;;;;;16.1;14.4;;;;;;;15.55;100;95394.79;;;;
2019/08/31 05:53:31;;;;;;;16.1;14.4;;;;;;;15.55;100;95394.79;;;;
2019/08/31 05:54:32;;;;;;;16.1;14.4;;;;;;;15.55;100;95394.79;;;;
2019/08/31 05:55:33;;;;;;;16.1;14.4;;;;;;;15.55;100;95394.79;;;;
2019/08/31 05:56:34;;;;;;;16.1;14.4;;;;;;;15.55;100;95394.79;;;;
2019/08/31 05:57:35;;;;;;;17;15.35;;;;;;;15.98;100;95391.72;;;;
2019/08/31 05:58:37;;;;;;;17;15.35;;;;;;;15.98;100;95391.72;;;;
2019/08/31 05:59:38;;;;;;;17;15.35;;;;;;;15.98;100;95391.72;;;;
2019/08/31 06:00:39;;;;;;;17;15.35;;;;;;;15.98;100;95391.72;;;;
2019/08/31 06:01:42;;;;;;;17;15.35;;;;;;;15.98;100;95391.72;;;;
2019/08/31 06:02:43;;;;;;;17;15.35;;;;;;;15.98;100;95391.72;;;;
2019/08/31 06:03:44;;;;;;;17;15.35;;;;;;;15.98;100;95391.72;;;;
2019/08/31 06:04:45;;;;;;;17;15.35;;;;;;;15.98;100;95391.72;;;;
2019/08/31 06:05:47;;;;;;;17;15.35;;;;;;;15.98;100;95391.72;;;;
2019/08/31 06:06:48;;;;;;;17;15.35;;;;;;;15.98;100;95391.72;;;;
2019/08/31 06:07:49;;;;;;;17;15.35;;;;;;;15.98;100;95391.72;;;;
2019/08/31 06:08:50;;;;;;;17.15;14.85;;;;;;;16.6;100;95388.94;;;;
2019/08/31 06:09:51;;;;;;;17.15;14.85;;;;;;;16.6;100;95388.94;;;;
2019/08/31 06:10:52;;;;;;;17.15;14.85;;;;;;;16.6;100;95388.94;;;;